createdAt,value
2022-08-26T00:00:56.704Z,61.95
2022-08-26T00:01:59.780Z,62.00
2022-08-26T00:03:02.703Z,62.13
2022-08-26T00:04:05.644Z,62.39
2022-08-26T00:05:08.383Z,62.24
2022-08-26T00:06:11.260Z,62.18
2022-08-26T00:07:15.167Z,62.22
2022-08-26T00:08:19.675Z,62.34
2022-08-26T00:09:22.309Z,62.34
2022-08-26T00:10:25.867Z,62.18
2022-08-26T00:11:28.243Z,62.15
2022-08-26T00:12:36.074Z,61.93
2022-08-26T00:13:36.107Z,62.08
2022-08-26T00:14:38.250Z,62.04
2022-08-26T00:15:40.854Z,62.30
2022-08-26T00:16:47.801Z,62.37
2022-08-26T00:17:50.027Z,62.30
2022-08-26T00:18:52.321Z,62.13
2022-08-26T00:19:54.396Z,62.01
2022-08-26T00:20:56.869Z,61.95
2022-08-26T00:21:58.954Z,62.04
2022-08-26T00:23:02.834Z,61.85
2022-08-26T00:24:06.313Z,61.82
2022-08-26T00:25:27.093Z,61.89
2022-08-26T00:26:29.330Z,61.80
2022-08-26T00:27:31.463Z,61.61
2022-08-26T00:28:35.470Z,61.81
2022-08-26T00:29:38.060Z,61.78
2022-08-26T00:30:40.539Z,61.85
2022-08-26T00:31:45.161Z,61.79
2022-08-26T00:32:47.349Z,61.63
2022-08-26T00:33:50.243Z,61.78
2022-08-26T00:34:52.197Z,61.90
2022-08-26T00:35:54.094Z,61.84
2022-08-26T00:36:57.166Z,62.07
2022-08-26T00:38:00.652Z,61.86
2022-08-26T00:39:15.818Z,61.87
2022-08-26T00:40:22.896Z,61.74
2022-08-26T00:41:25.411Z,61.62
2022-08-26T00:42:27.858Z,61.60
2022-08-26T00:43:32.991Z,61.94
2022-08-26T00:44:36.900Z,61.95
2022-08-26T00:45:46.501Z,62.06
2022-08-26T00:46:52.223Z,62.14
2022-08-26T00:47:59.692Z,62.12
2022-08-26T00:49:12.204Z,62.29
2022-08-26T00:50:19.636Z,62.45
2022-08-26T00:51:25.066Z,62.36
2022-08-26T00:52:29.811Z,62.49
2022-08-26T00:53:35.933Z,62.04
2022-08-26T00:54:44.509Z,62.23
2022-08-26T00:57:16.477Z,61.93
2022-08-26T00:58:13.061Z,61.70
2022-08-26T00:59:17.673Z,61.39
2022-08-26T01:00:23.868Z,61.45
2022-08-26T01:01:25.999Z,61.20
2022-08-26T01:02:28.866Z,61.31
2022-08-26T01:03:33.764Z,61.53
2022-08-26T01:04:37.863Z,61.30
2022-08-26T01:05:40.962Z,60.94
2022-08-26T01:06:44.386Z,61.04
2022-08-26T01:07:46.682Z,61.05
2022-08-26T01:08:48.763Z,61.30
2022-08-26T01:09:50.766Z,61.21
2022-08-26T01:10:55.847Z,61.34
2022-08-26T01:12:01.219Z,61.33
2022-08-26T01:13:07.497Z,61.39
2022-08-26T01:14:09.883Z,61.55
2022-08-26T01:15:48.958Z,61.76
2022-08-26T01:16:51.278Z,61.75
2022-08-26T01:17:54.272Z,62.32
2022-08-26T01:18:59.922Z,62.65
2022-08-26T01:20:22.501Z,62.61
2022-08-26T01:21:40.559Z,62.44
2022-08-26T01:22:58.773Z,62.49
2022-08-26T01:24:04.241Z,62.50
2022-08-26T01:25:06.824Z,62.49
2022-08-26T01:26:20.190Z,62.21
2022-08-26T01:27:22.544Z,62.21
2022-08-26T01:28:28.724Z,63.08
2022-08-26T01:29:34.335Z,62.92
2022-08-26T01:30:40.309Z,63.26
2022-08-26T01:31:46.715Z,63.23
2022-08-26T01:32:51.604Z,63.29
2022-08-26T01:34:17.147Z,63.34
2022-08-26T01:35:19.523Z,63.18
2022-08-26T01:36:22.464Z,63.00
2022-08-26T01:37:28.134Z,63.00
2022-08-26T01:38:31.549Z,63.21
2022-08-26T01:39:36.265Z,63.49
2022-08-26T01:40:39.575Z,63.64
2022-08-26T01:41:44.154Z,63.68
2022-08-26T01:42:47.423Z,63.78
2022-08-26T01:43:54.872Z,63.76
2022-08-26T01:45:00.565Z,63.93
2022-08-26T01:46:16.662Z,63.72
2022-08-26T01:47:22.283Z,63.22
2022-08-26T01:48:27.973Z,63.67
2022-08-26T01:49:32.576Z,63.53
2022-08-26T01:50:38.009Z,63.30
2022-08-26T01:51:40.718Z,63.31
2022-08-26T01:52:45.911Z,63.47
2022-08-26T01:53:50.169Z,63.59
2022-08-26T01:54:54.233Z,63.68
2022-08-26T01:55:59.633Z,63.71
2022-08-26T01:57:02.869Z,63.80
2022-08-26T01:58:08.541Z,63.78
2022-08-26T01:59:13.840Z,63.79
2022-08-26T02:00:18.069Z,63.65
2022-08-26T02:01:21.856Z,63.77
2022-08-26T02:02:24.489Z,63.77
2022-08-26T02:03:28.770Z,63.80
2022-08-26T02:04:37.889Z,63.61
2022-08-26T02:05:40.633Z,63.72
2022-08-26T02:06:46.350Z,63.94
2022-08-26T02:07:49.762Z,63.86
2022-08-26T02:08:54.825Z,64.29
2022-08-26T02:09:59.090Z,64.07
2022-08-26T02:11:25.553Z,63.94
2022-08-26T02:12:28.054Z,64.17
2022-08-26T02:13:32.530Z,64.17
2022-08-26T02:14:43.844Z,64.37
2022-08-26T02:15:43.862Z,64.32
2022-08-26T02:16:50.644Z,64.00
2022-08-26T02:17:54.071Z,64.08
2022-08-26T02:19:00.924Z,63.98
2022-08-26T02:20:15.811Z,64.33
2022-08-26T02:21:18.324Z,64.59
2022-08-26T02:22:24.586Z,64.38
2022-08-26T02:23:27.046Z,64.44
2022-08-26T02:24:33.379Z,64.36
2022-08-26T02:25:48.284Z,64.35
2022-08-26T02:26:52.795Z,64.22
2022-08-26T02:27:55.140Z,64.29
2022-08-26T02:29:04.525Z,64.38
2022-08-26T02:30:13.736Z,64.41
2022-08-26T02:31:16.527Z,64.35
2022-08-26T02:32:18.756Z,64.43
2022-08-26T02:33:20.939Z,64.35
2022-08-26T02:34:31.236Z,64.25
2022-08-26T02:35:34.500Z,64.65
2022-08-26T02:36:37.442Z,64.40
2022-08-26T02:37:41.879Z,64.34
2022-08-26T02:38:44.180Z,64.36
2022-08-26T02:39:48.185Z,64.19
2022-08-26T02:40:51.098Z,64.45
2022-08-26T02:41:53.351Z,64.53
2022-08-26T02:42:56.949Z,65.27
2022-08-26T02:43:59.675Z,65.33
2022-08-26T02:45:01.733Z,65.14
2022-08-26T02:46:05.124Z,64.97
2022-08-26T02:47:07.690Z,64.76
2022-08-26T02:48:13.140Z,65.21
2022-08-26T02:49:17.365Z,65.10
2022-08-26T02:50:20.449Z,65.04
2022-08-26T02:51:22.695Z,64.88
2022-08-26T02:52:25.845Z,64.82
2022-08-26T02:53:28.762Z,64.76
2022-08-26T02:54:32.763Z,65.04
2022-08-26T02:55:35.842Z,64.82
2022-08-26T02:56:38.011Z,64.86
2022-08-26T02:57:40.253Z,64.52
2022-08-26T02:58:42.331Z,64.60
2022-08-26T02:59:44.499Z,64.60
2022-08-26T03:00:52.763Z,64.94
2022-08-26T03:01:51.904Z,64.55
2022-08-26T03:02:54.761Z,64.52
2022-08-26T03:03:56.838Z,64.78
2022-08-26T03:05:01.996Z,64.78
2022-08-26T03:06:03.117Z,65.03
2022-08-26T03:07:06.962Z,65.14
2022-08-26T03:08:09.081Z,64.74
2022-08-26T03:09:18.474Z,64.85
2022-08-26T03:10:17.509Z,65.10
2022-08-26T03:11:19.631Z,65.17
2022-08-26T03:12:21.699Z,65.12
2022-08-26T03:13:23.845Z,65.06
2022-08-26T03:14:25.988Z,64.93
2022-08-26T03:15:29.874Z,65.04
2022-08-26T03:16:34.712Z,65.07
2022-08-26T03:17:36.970Z,64.77
2022-08-26T03:18:39.719Z,64.68
2022-08-26T03:19:42.247Z,64.72
2022-08-26T03:20:45.160Z,64.93
2022-08-26T03:21:47.538Z,65.09
2022-08-26T03:22:52.333Z,64.96
2022-08-26T03:23:54.453Z,64.75
2022-08-26T03:25:03.073Z,64.72
2022-08-26T03:26:06.715Z,64.51
2022-08-26T03:27:08.823Z,64.57
2022-08-26T03:28:10.781Z,64.55
2022-08-26T03:29:12.648Z,64.18
2022-08-26T03:30:17.014Z,64.28
2022-08-26T03:31:19.126Z,64.59
2022-08-26T03:32:23.161Z,64.40
2022-08-26T03:33:27.472Z,64.65
2022-08-26T03:34:29.879Z,63.78
2022-08-26T03:35:32.908Z,63.90
2022-08-26T03:36:35.254Z,64.29
2022-08-26T03:37:38.797Z,64.19
2022-08-26T03:38:41.092Z,64.11
2022-08-26T03:39:43.144Z,64.04
2022-08-26T03:40:45.779Z,63.92
2022-08-26T03:41:47.746Z,63.89
2022-08-26T03:42:50.621Z,63.94
2022-08-26T03:43:53.112Z,63.80
2022-08-26T03:44:55.051Z,63.68
2022-08-26T03:45:58.045Z,63.63
2022-08-26T03:47:00.110Z,63.67
2022-08-26T03:48:03.922Z,63.66
2022-08-26T03:49:07.878Z,63.57
2022-08-26T03:50:12.590Z,63.47
2022-08-26T03:51:18.557Z,63.43
2022-08-26T03:52:21.337Z,63.27
2022-08-26T03:53:23.388Z,63.67
2022-08-26T03:54:25.448Z,63.36
2022-08-26T03:55:30.324Z,63.55
2022-08-26T03:56:33.729Z,63.74
2022-08-26T03:57:35.797Z,63.76
2022-08-26T03:58:37.937Z,63.83
2022-08-26T03:59:41.235Z,63.68
2022-08-26T04:00:44.827Z,63.49
2022-08-26T04:01:48.723Z,63.32
2022-08-26T04:02:53.330Z,63.79
2022-08-26T04:03:55.729Z,63.20
2022-08-26T04:04:57.793Z,63.31
2022-08-26T04:06:00.491Z,63.64
2022-08-26T04:07:02.983Z,63.15
2022-08-26T04:08:05.525Z,63.30
2022-08-26T04:09:10.979Z,62.92
2022-08-26T04:10:19.400Z,62.83
2022-08-26T04:11:24.996Z,62.44
2022-08-26T04:12:28.430Z,62.34
2022-08-26T04:13:30.750Z,62.05
2022-08-26T04:14:32.789Z,62.24
2022-08-26T04:15:34.714Z,62.12
2022-08-26T04:16:36.913Z,62.22
2022-08-26T04:17:40.131Z,61.94
2022-08-26T04:18:46.788Z,62.31
2022-08-26T04:19:46.506Z,62.44
2022-08-26T04:20:49.593Z,61.97
2022-08-26T04:21:52.893Z,62.70
2022-08-26T04:22:55.013Z,62.68
2022-08-26T04:23:58.222Z,62.69
2022-08-26T04:25:00.923Z,62.56
2022-08-26T04:26:03.416Z,62.59
2022-08-26T04:27:08.175Z,62.48
2022-08-26T04:28:10.361Z,62.31
2022-08-26T04:29:15.825Z,62.31
2022-08-26T04:30:19.390Z,62.17
2022-08-26T04:31:21.698Z,61.90
2022-08-26T04:32:23.993Z,61.94
2022-08-26T04:33:32.428Z,61.63
2022-08-26T04:34:30.511Z,61.90
2022-08-26T04:35:34.013Z,61.98
2022-08-26T04:36:37.430Z,61.60
2022-08-26T04:37:40.124Z,62.05
2022-08-26T04:38:44.167Z,61.68
2022-08-26T04:39:52.783Z,61.92
2022-08-26T04:40:55.752Z,61.79
2022-08-26T04:42:00.343Z,61.69
2022-08-26T04:43:03.916Z,61.48
2022-08-26T04:44:06.082Z,61.67
2022-08-26T04:45:10.345Z,61.25
2022-08-26T04:46:16.690Z,61.45
2022-08-26T04:47:18.875Z,60.98
2022-08-26T04:48:21.124Z,60.80
2022-08-26T04:49:23.268Z,60.98
2022-08-26T04:50:28.473Z,61.28
2022-08-26T04:51:32.031Z,60.79
2022-08-26T04:52:34.718Z,60.91
2022-08-26T04:53:38.216Z,60.66
2022-08-26T04:54:41.997Z,60.78
2022-08-26T04:55:45.113Z,60.12
2022-08-26T04:56:47.548Z,60.33
2022-08-26T04:57:51.971Z,60.75
2022-08-26T04:58:54.626Z,60.33
2022-08-26T04:59:56.680Z,59.82
2022-08-26T05:00:59.893Z,60.11
2022-08-26T05:02:02.078Z,59.81
2022-08-26T05:03:06.942Z,59.94
2022-08-26T05:04:10.762Z,59.91
2022-08-26T05:05:14.476Z,60.08
2022-08-26T05:06:19.011Z,59.36
2022-08-26T05:07:21.429Z,59.36
2022-08-26T05:08:24.703Z,59.49
2022-08-26T05:09:27.237Z,59.84
2022-08-26T05:10:29.915Z,60.09
2022-08-26T05:11:32.201Z,59.35
2022-08-26T05:12:34.234Z,59.50
2022-08-26T05:13:36.478Z,59.62
2022-08-26T05:14:40.217Z,59.43
2022-08-26T05:15:43.973Z,59.34
2022-08-26T05:16:47.763Z,58.85
2022-08-26T05:17:49.995Z,58.89
2022-08-26T05:18:52.417Z,59.24
2022-08-26T05:19:54.573Z,58.94
2022-08-26T05:20:57.880Z,59.02
2022-08-26T05:21:59.945Z,58.85
2022-08-26T05:23:02.089Z,58.64
2022-08-26T05:24:05.062Z,58.56
2022-08-26T05:25:07.621Z,58.72
2022-08-26T05:26:10.453Z,59.41
2022-08-26T05:27:13.498Z,58.78
2022-08-26T05:28:18.566Z,58.87
2022-08-26T05:29:21.567Z,58.66
2022-08-26T05:30:24.588Z,58.66
2022-08-26T05:31:29.610Z,58.37
2022-08-26T05:32:32.133Z,58.33
2022-08-26T05:33:34.262Z,58.20
2022-08-26T05:34:36.811Z,58.19
2022-08-26T05:35:42.352Z,58.28
2022-08-26T05:37:06.447Z,58.21
2022-08-26T05:38:12.790Z,58.24
2022-08-26T05:39:16.213Z,57.28
2022-08-26T05:40:18.694Z,57.21
2022-08-26T05:41:34.376Z,57.03
2022-08-26T05:42:37.488Z,56.25
2022-08-26T05:43:43.027Z,56.91
2022-08-26T05:44:55.377Z,56.52
2022-08-26T05:45:49.951Z,55.58
2022-08-26T05:46:52.098Z,56.15
2022-08-26T05:47:54.310Z,56.28
2022-08-26T05:48:57.277Z,54.96
2022-08-26T05:49:59.875Z,55.25
2022-08-26T05:51:05.412Z,55.40
2022-08-26T05:52:07.567Z,54.90
2022-08-26T05:53:13.874Z,54.66
2022-08-26T05:54:22.063Z,55.05
2022-08-26T05:55:21.788Z,54.78
2022-08-26T05:56:25.322Z,54.65
2022-08-26T05:57:29.417Z,54.71
2022-08-26T05:58:33.699Z,54.83
2022-08-26T05:59:36.281Z,54.28
2022-08-26T06:00:41.694Z,54.21
2022-08-26T06:01:44.017Z,54.50
2022-08-26T06:02:48.385Z,53.94
2022-08-26T06:03:51.947Z,53.67
2022-08-26T06:04:53.843Z,53.91
2022-08-26T06:05:55.860Z,53.75
2022-08-26T06:06:58.753Z,52.97
2022-08-26T06:08:00.947Z,52.94
2022-08-26T06:09:05.346Z,52.60
2022-08-26T06:10:31.615Z,52.71
2022-08-26T06:11:22.086Z,52.53
2022-08-26T06:12:28.279Z,52.47
2022-08-26T06:13:31.924Z,51.84
2022-08-26T06:14:34.350Z,51.84
2022-08-26T06:15:45.072Z,52.61
2022-08-26T06:16:48.311Z,52.55
2022-08-26T06:17:50.515Z,52.83
2022-08-26T06:18:53.457Z,52.72
2022-08-26T06:19:55.542Z,52.85
2022-08-26T06:20:59.078Z,52.90
2022-08-26T06:22:01.154Z,52.82
2022-08-26T06:23:04.428Z,52.68
2022-08-26T06:24:10.435Z,52.72
2022-08-26T06:25:12.807Z,52.28
2022-08-26T06:26:16.589Z,52.55
2022-08-26T06:27:18.712Z,52.78
2022-08-26T06:28:21.787Z,52.09
2022-08-26T06:29:25.740Z,51.95
2022-08-26T06:30:28.214Z,51.72
2022-08-26T06:31:32.688Z,51.67
2022-08-26T06:32:35.991Z,51.86
2022-08-26T06:33:38.303Z,52.30
2022-08-26T06:34:41.244Z,52.35
2022-08-26T06:35:44.542Z,52.05
2022-08-26T06:36:48.042Z,52.00
2022-08-26T06:37:50.150Z,51.82
2022-08-26T06:38:54.866Z,51.88
2022-08-26T06:39:57.674Z,51.83
2022-08-26T06:41:00.517Z,51.69
2022-08-26T06:42:03.390Z,52.05
2022-08-26T06:43:09.233Z,51.76
2022-08-26T06:44:14.401Z,51.61
2022-08-26T06:45:16.625Z,52.42
2022-08-26T06:46:21.827Z,51.58
2022-08-26T06:47:24.835Z,51.08
2022-08-26T06:48:27.438Z,51.29
2022-08-26T06:49:29.705Z,51.93
2022-08-26T06:50:34.615Z,51.93
2022-08-26T06:51:39.427Z,51.29
2022-08-26T06:52:42.063Z,51.27
2022-08-26T06:53:46.046Z,50.72
2022-08-26T06:54:48.408Z,50.60
2022-08-26T06:55:52.542Z,50.99
2022-08-26T06:56:54.715Z,50.53
2022-08-26T06:57:58.834Z,50.34
2022-08-26T06:59:02.525Z,49.83
2022-08-26T07:00:07.799Z,49.74
2022-08-26T07:01:22.823Z,49.14
2022-08-26T07:02:25.515Z,49.05
2022-08-26T07:03:29.636Z,48.75
2022-08-26T07:04:33.800Z,48.70
2022-08-26T07:05:38.708Z,48.68
2022-08-26T07:06:43.124Z,48.33
2022-08-26T07:07:46.963Z,48.60
2022-08-26T07:08:51.675Z,48.60
2022-08-26T07:09:56.797Z,47.47
2022-08-26T07:11:05.716Z,47.28
2022-08-26T07:12:07.715Z,47.00
2022-08-26T07:13:10.484Z,46.77
2022-08-26T07:14:12.770Z,46.18
2022-08-26T07:15:16.253Z,45.79
2022-08-26T07:16:18.775Z,45.84
2022-08-26T07:17:24.952Z,45.31
2022-08-26T07:18:27.282Z,45.93
2022-08-26T07:19:31.716Z,45.91
2022-08-26T07:20:40.555Z,45.62
2022-08-26T07:21:44.634Z,45.57
2022-08-26T07:22:48.925Z,46.42
2022-08-26T07:23:57.507Z,45.33
2022-08-26T07:24:57.753Z,45.06
2022-08-26T07:26:06.447Z,45.50
2022-08-26T07:27:12.378Z,46.51
2022-08-26T07:28:14.482Z,45.13
2022-08-26T07:29:17.577Z,45.01
2022-08-26T07:30:21.823Z,45.28
2022-08-26T07:31:27.562Z,45.06
2022-08-26T07:32:29.938Z,44.81
2022-08-26T07:33:34.502Z,44.50
2022-08-26T07:34:37.814Z,44.67
2022-08-26T07:35:41.480Z,44.24
2022-08-26T07:36:43.798Z,44.84
2022-08-26T07:37:45.972Z,44.12
2022-08-26T07:39:06.804Z,43.55
2022-08-26T07:40:09.933Z,44.13
2022-08-26T07:41:14.074Z,43.80
2022-08-26T07:42:18.528Z,44.10
2022-08-26T07:43:20.824Z,44.13
2022-08-26T07:44:24.828Z,43.93
2022-08-26T07:45:45.589Z,43.29
2022-08-26T07:47:10.408Z,43.70
2022-08-26T07:48:14.023Z,42.92
2022-08-26T07:49:17.465Z,43.29
2022-08-26T07:50:20.752Z,41.90
2022-08-26T07:51:23.143Z,41.36
2022-08-26T07:52:28.456Z,41.09
2022-08-26T07:53:30.690Z,40.87
2022-08-26T07:54:32.718Z,41.07
2022-08-26T07:55:34.878Z,40.33
2022-08-26T07:56:39.535Z,40.36
2022-08-26T07:57:41.760Z,40.77
2022-08-26T07:58:50.518Z,40.50
2022-08-26T07:59:50.319Z,39.98
2022-08-26T08:00:52.515Z,40.58
2022-08-26T08:01:55.941Z,40.46
2022-08-26T08:03:02.717Z,40.29
2022-08-26T08:04:05.310Z,40.17
2022-08-26T08:05:11.226Z,40.44
2022-08-26T08:06:14.479Z,39.86
2022-08-26T08:07:17.127Z,40.12
2022-08-26T08:08:27.690Z,40.03
2022-08-26T08:09:24.111Z,40.01
2022-08-26T08:10:28.331Z,39.64
2022-08-26T08:11:32.189Z,39.84
2022-08-26T08:12:35.027Z,38.36
2022-08-26T08:13:37.778Z,39.07
2022-08-26T08:14:40.790Z,39.00
2022-08-26T08:15:45.228Z,39.51
2022-08-26T08:16:53.601Z,39.25
2022-08-26T08:17:57.698Z,39.06
2022-08-26T08:18:59.971Z,38.98
2022-08-26T08:20:03.632Z,39.35
2022-08-26T08:21:21.199Z,39.34
2022-08-26T08:22:17.927Z,39.26
2022-08-26T08:23:16.050Z,39.93
2022-08-26T08:24:19.005Z,38.79
2022-08-26T08:25:22.432Z,39.51
2022-08-26T08:26:27.070Z,38.99
2022-08-26T08:27:29.295Z,38.74
2022-08-26T08:28:32.436Z,39.41
2022-08-26T08:29:36.393Z,38.40
2022-08-26T08:30:39.349Z,37.98
2022-08-26T08:31:58.058Z,37.38
2022-08-26T08:32:45.917Z,37.48
2022-08-26T08:33:48.292Z,36.85
2022-08-26T08:34:50.405Z,36.59
2022-08-26T08:35:52.739Z,36.36
2022-08-26T08:36:56.780Z,36.74
2022-08-26T08:37:59.574Z,35.85
2022-08-26T08:39:01.812Z,35.93
2022-08-26T08:40:05.695Z,36.04
2022-08-26T08:41:27.557Z,36.38
2022-08-26T08:42:46.915Z,35.17
2022-08-26T08:43:51.134Z,36.04
2022-08-26T08:44:57.470Z,35.70
2022-08-26T08:46:09.557Z,35.37
2022-08-26T08:48:34.450Z,35.08
2022-08-26T08:49:36.833Z,36.88
2022-08-26T08:52:06.078Z,35.47
2022-08-26T08:53:17.697Z,34.14
2022-08-26T08:54:22.023Z,34.38
2022-08-26T08:55:27.996Z,33.08
2022-08-26T08:57:00.654Z,32.58
2022-08-26T08:58:09.960Z,32.49
2022-08-26T08:59:15.968Z,35.31
2022-08-26T09:00:21.751Z,33.65
2022-08-26T09:01:29.307Z,33.13
2022-08-26T09:02:38.708Z,33.46
2022-08-26T09:03:48.961Z,32.54
2022-08-26T09:04:55.699Z,32.51
2022-08-26T09:06:02.822Z,32.54
2022-08-26T09:07:10.055Z,32.55
2022-08-26T09:08:16.024Z,32.45
2022-08-26T09:09:30.950Z,33.87
2022-08-26T09:10:52.484Z,35.74
2022-08-26T09:11:57.386Z,34.88
2022-08-26T09:13:02.489Z,35.00
2022-08-26T09:14:04.865Z,29.58
2022-08-26T09:15:19.934Z,32.93
2022-08-26T09:16:38.398Z,35.51
2022-08-26T09:17:51.727Z,32.38
2022-08-26T09:19:15.156Z,28.78
2022-08-26T09:20:36.234Z,29.03
2022-08-26T09:21:39.602Z,28.51
2022-08-26T09:22:44.134Z,31.03
2022-08-26T09:23:49.551Z,30.31
2022-08-26T09:24:50.421Z,28.38
2022-08-26T09:26:00.145Z,32.99
2022-08-26T09:27:02.777Z,28.36
2022-08-26T09:28:10.429Z,31.70
2022-08-26T09:29:27.803Z,29.62
2022-08-26T09:30:33.456Z,32.56
2022-08-26T09:31:38.027Z,32.13
2022-08-26T09:32:41.298Z,29.37
2022-08-26T09:33:44.013Z,31.97
2022-08-26T09:34:58.836Z,28.91
2022-08-26T09:36:24.828Z,30.45
2022-08-26T09:37:37.456Z,31.28
2022-08-26T09:38:39.821Z,30.63
2022-08-26T09:39:45.478Z,31.34
2022-08-26T09:41:03.603Z,29.27
2022-08-26T09:42:23.596Z,29.40
2022-08-26T09:43:28.706Z,30.81
2022-08-26T09:44:32.216Z,32.21
2022-08-26T09:45:36.127Z,30.58
2022-08-26T09:46:42.479Z,27.21
2022-08-26T09:47:54.423Z,28.50
2022-08-26T09:48:58.383Z,30.91
2022-08-26T09:50:12.418Z,31.58
2022-08-26T09:51:24.203Z,29.47
2022-08-26T09:52:26.508Z,30.25
2022-08-26T09:53:31.539Z,27.62
2022-08-26T09:54:36.045Z,30.08
2022-08-26T09:55:40.424Z,29.57
2022-08-26T09:56:43.760Z,26.95
2022-08-26T09:57:51.687Z,28.54
2022-08-26T09:58:54.799Z,28.94
2022-08-26T09:59:57.296Z,28.45
2022-08-26T10:01:01.489Z,26.73
2022-08-26T10:02:26.367Z,29.86
2022-08-26T10:03:31.856Z,30.54
2022-08-26T10:04:34.895Z,29.37
2022-08-26T10:05:46.698Z,26.75
2022-08-26T10:07:06.727Z,27.72
2022-08-26T10:08:27.641Z,25.23
2022-08-26T10:09:41.733Z,25.36
2022-08-26T10:10:45.277Z,26.72
2022-08-26T10:11:53.866Z,28.35
2022-08-26T10:13:10.567Z,27.27
2022-08-26T10:14:20.236Z,25.47
2022-08-26T10:15:26.584Z,25.38
2022-08-26T10:16:57.596Z,26.75
2022-08-26T10:18:25.941Z,27.25
2022-08-26T10:19:41.802Z,24.60
2022-08-26T10:20:43.378Z,29.10
2022-08-26T10:21:56.411Z,24.50
2022-08-26T10:23:15.007Z,29.30
2022-08-26T10:24:20.767Z,24.45
2022-08-26T10:25:28.072Z,28.89
2022-08-26T10:28:28.448Z,23.70
2022-08-26T10:29:49.017Z,25.68
2022-08-26T10:31:19.970Z,26.75
2022-08-26T10:32:35.948Z,27.54
2022-08-26T10:33:40.028Z,23.45
2022-08-26T10:34:42.966Z,23.79
2022-08-26T10:35:56.112Z,22.28
2022-08-26T10:37:14.151Z,22.05
2022-08-26T10:38:16.552Z,23.57
2022-08-26T10:39:28.013Z,23.96
2022-08-26T10:40:56.424Z,22.28
2022-08-26T10:42:03.777Z,22.06
2022-08-26T10:43:29.642Z,22.99
2022-08-26T10:44:36.325Z,23.14
2022-08-26T10:45:45.444Z,23.70
2022-08-26T10:46:52.054Z,22.45
2022-08-26T10:48:02.107Z,22.78
2022-08-26T10:49:11.649Z,23.95
2022-08-26T10:50:17.993Z,24.92
2022-08-26T10:53:08.666Z,22.91
2022-08-26T10:54:32.882Z,23.65
2022-08-26T10:55:44.700Z,22.65
2022-08-26T10:56:53.571Z,23.16
2022-08-26T10:58:04.753Z,22.23
2022-08-26T10:59:10.388Z,22.24
2022-08-26T11:00:20.437Z,23.94
2022-08-26T11:01:32.615Z,24.40
2022-08-26T11:02:47.099Z,24.64
2022-08-26T11:03:55.760Z,23.08
2022-08-26T11:05:03.427Z,26.12
2022-08-26T11:06:28.988Z,24.99
2022-08-26T11:07:38.118Z,26.29
2022-08-26T11:08:50.054Z,24.15
2022-08-26T11:09:52.831Z,25.14
2022-08-26T11:10:59.694Z,25.65
2022-08-26T11:12:09.932Z,25.87
2022-08-26T11:13:06.456Z,24.72
2022-08-26T11:14:29.164Z,26.46
2022-08-26T11:15:31.944Z,22.82
2022-08-26T11:16:45.062Z,26.65
2022-08-26T11:17:50.730Z,24.84
2022-08-26T11:18:53.644Z,27.51
2022-08-26T11:20:01.511Z,25.30
2022-08-26T11:21:03.109Z,25.91
2022-08-26T11:22:09.201Z,24.39
2022-08-26T11:23:14.840Z,27.05
2022-08-26T11:24:42.121Z,25.68
2022-08-26T11:25:59.834Z,25.61
2022-08-26T11:27:02.673Z,25.66
2022-08-26T11:28:06.103Z,23.78
2022-08-26T11:29:12.097Z,24.08
2022-08-26T11:30:18.867Z,24.00
2022-08-26T11:31:27.952Z,25.16
2022-08-26T11:32:36.692Z,24.66
2022-08-26T11:33:54.533Z,26.11
2022-08-26T11:34:58.453Z,23.41
2022-08-26T11:36:00.697Z,24.11
2022-08-26T11:37:08.310Z,23.61
2022-08-26T11:38:18.660Z,23.47
2022-08-26T11:39:30.126Z,24.13
2022-08-26T11:40:36.577Z,24.82
2022-08-26T11:41:45.707Z,21.62
2022-08-26T11:42:51.442Z,24.12
2022-08-26T11:43:53.541Z,23.25
2022-08-26T11:44:58.172Z,23.57
2022-08-26T11:46:09.589Z,23.17
2022-08-26T11:47:15.661Z,21.61
2022-08-26T11:48:31.626Z,21.69
2022-08-26T11:49:33.811Z,21.89
2022-08-26T11:50:36.617Z,24.26
2022-08-26T11:51:40.874Z,24.58
2022-08-26T11:52:57.730Z,24.24
2022-08-26T11:54:11.620Z,24.36
2022-08-26T11:55:14.324Z,23.28
2022-08-26T11:56:31.649Z,21.08
2022-08-26T11:57:37.729Z,21.58
2022-08-26T11:58:45.723Z,22.66
2022-08-26T11:59:47.855Z,21.79
2022-08-26T12:01:09.858Z,23.77
2022-08-26T12:02:16.621Z,23.80
2022-08-26T12:03:23.998Z,22.57
2022-08-26T12:04:29.939Z,23.47
2022-08-26T12:05:41.899Z,21.32
2022-08-26T12:06:50.333Z,22.65
2022-08-26T12:07:53.137Z,22.23
2022-08-26T12:08:58.955Z,22.57
2022-08-26T12:10:04.123Z,24.05
2022-08-26T12:11:14.023Z,21.03
2022-08-26T12:12:25.472Z,22.25
2022-08-26T12:13:27.566Z,22.75
2022-08-26T12:14:30.978Z,21.98
2022-08-26T12:15:34.030Z,21.98
2022-08-26T12:16:39.126Z,24.54
2022-08-26T12:17:43.880Z,21.30
2022-08-26T12:18:46.946Z,21.27
2022-08-26T12:19:49.265Z,22.65
2022-08-26T12:20:52.738Z,22.72
2022-08-26T12:22:05.094Z,21.69
2022-08-26T12:23:07.218Z,22.53
2022-08-26T12:24:09.309Z,22.87
2022-08-26T12:25:13.647Z,23.29
2022-08-26T12:26:32.102Z,21.88
2022-08-26T12:27:41.514Z,21.19
2022-08-26T12:28:59.710Z,22.75
2022-08-26T12:30:18.104Z,23.49
2022-08-26T12:31:36.371Z,22.40
2022-08-26T12:32:57.408Z,22.20
2022-08-26T12:33:49.328Z,23.28
2022-08-26T12:34:53.158Z,22.25
2022-08-26T12:35:56.995Z,22.64
2022-08-26T12:38:03.096Z,23.75
2022-08-26T12:39:33.197Z,22.23
2022-08-26T12:40:46.920Z,21.68
2022-08-26T12:42:01.619Z,23.72
2022-08-26T12:43:07.306Z,23.94
2022-08-26T12:44:29.634Z,22.58
2022-08-26T12:45:39.149Z,21.77
2022-08-26T12:46:41.422Z,20.93
2022-08-26T12:47:45.333Z,23.95
2022-08-26T12:48:49.019Z,21.99
2022-08-26T12:50:20.088Z,22.50
2022-08-26T12:51:28.154Z,23.31
2022-08-26T12:52:33.884Z,22.62
2022-08-26T12:53:39.630Z,22.47
2022-08-26T12:54:41.899Z,22.78
2022-08-26T12:55:47.430Z,22.87
2022-08-26T12:56:50.314Z,24.26
2022-08-26T12:58:14.686Z,21.98
2022-08-26T12:59:26.152Z,22.60
2022-08-26T13:00:33.184Z,22.44
2022-08-26T13:01:39.257Z,21.89
2022-08-26T13:02:41.943Z,22.75
2022-08-26T13:03:45.461Z,21.40
2022-08-26T13:04:51.373Z,20.60
2022-08-26T13:05:53.531Z,21.49
2022-08-26T13:07:19.040Z,21.97
2022-08-26T13:08:26.290Z,22.13
2022-08-26T13:09:30.105Z,20.25
2022-08-26T13:10:36.226Z,20.04
2022-08-26T13:11:42.119Z,20.35
2022-08-26T13:12:44.265Z,19.20
2022-08-26T13:13:53.305Z,19.93
2022-08-26T13:14:57.192Z,19.82
2022-08-26T13:15:59.589Z,21.17
2022-08-26T13:17:01.767Z,19.73
2022-08-26T13:18:04.182Z,22.46
2022-08-26T13:19:10.326Z,22.38
2022-08-26T13:20:13.186Z,20.17
2022-08-26T13:21:22.437Z,20.52
2022-08-26T13:22:25.068Z,19.14
2022-08-26T13:23:27.559Z,21.64
2022-08-26T13:24:36.702Z,24.01
2022-08-26T13:25:39.027Z,23.54
2022-08-26T13:26:44.777Z,23.11
2022-08-26T13:27:47.152Z,23.62
2022-08-26T13:28:58.025Z,23.68
2022-08-26T13:29:55.130Z,22.09
2022-08-26T13:30:58.655Z,23.45
2022-08-26T13:32:01.283Z,24.18
2022-08-26T13:33:03.325Z,23.79
2022-08-26T13:34:08.080Z,24.22
2022-08-26T13:35:11.242Z,24.00
2022-08-26T13:36:14.226Z,23.86
2022-08-26T13:37:17.104Z,23.36
2022-08-26T13:38:32.959Z,24.03
2022-08-26T13:39:23.945Z,24.09
2022-08-26T13:40:30.268Z,23.94
2022-08-26T13:41:32.582Z,23.95
2022-08-26T13:42:35.027Z,22.28
2022-08-26T13:43:37.518Z,22.36
2022-08-26T13:44:40.190Z,23.34
2022-08-26T13:45:43.368Z,21.72
2022-08-26T13:47:48.596Z,23.02
2022-08-26T13:48:50.755Z,22.49
2022-08-26T13:49:52.696Z,24.16
2022-08-26T13:50:55.585Z,24.72
2022-08-26T13:51:57.715Z,24.72
2022-08-26T13:53:00.410Z,23.58
2022-08-26T13:54:02.607Z,24.03
2022-08-26T13:55:05.753Z,24.27
2022-08-26T13:56:11.052Z,24.09
2022-08-26T13:57:13.955Z,24.36
2022-08-26T13:58:16.147Z,24.90
2022-08-26T13:59:18.220Z,24.77
2022-08-26T14:00:22.439Z,24.07
2022-08-26T14:01:25.716Z,24.50
2022-08-26T14:02:28.115Z,22.87
2022-08-26T14:03:30.099Z,23.95
2022-08-26T14:04:33.452Z,24.24
2022-08-26T14:05:35.769Z,23.18
2022-08-26T14:06:38.592Z,23.58
2022-08-26T14:07:40.729Z,23.58
2022-08-26T14:08:44.565Z,24.00
2022-08-26T14:09:46.812Z,23.65
2022-08-26T14:10:49.235Z,23.79
2022-08-26T14:11:54.354Z,23.21
2022-08-26T14:12:55.831Z,23.20
2022-08-26T14:13:59.118Z,23.46
2022-08-26T14:15:01.681Z,23.06
2022-08-26T14:16:06.777Z,23.22
2022-08-26T14:17:09.480Z,23.38